Time;durP1;ratioP1;P1;durP2;ratioP2;P2;SDS_P1;SDS_P2;PMS_P1;PMS_P2;Temp;Humidity;BMP_temperature;BMP_pressure;BME280_temperature;BME280_humidity;BME280_pressure;Samples;Min_cycle;Max_cycle;Signal;HPM_P1;HPM_P2
2021/12/30 00:01:28;;;;;;;0.90;0.50;;;13.80;99.90;;;;;;5043963;28;20080;-63
2021/12/30 00:03:56;;;;;;;1.05;0.60;;;13.80;99.90;;;;;;5046786;28;20510;-63
2021/12/30 00:06:25;;;;;;;1.13;0.60;;;13.80;99.90;;;;;;5045715;28;20041;-62
2021/12/30 00:08:52;;;;;;;1.23;0.60;;;13.80;99.90;;;;;;5043151;28;20581;-62
2021/12/30 00:11:20;;;;;;;2.03;0.60;;;13.80;99.90;;;;;;5045074;28;20052;-61
2021/12/30 00:13:47;;;;;;;2.20;0.50;;;13.90;99.90;;;;;;5043437;28;20841;-62
2021/12/30 00:16:15;;;;;;;0.50;0.50;;;13.90;99.90;;;;;;5044761;28;20080;-61
2021/12/30 00:18:42;;;;;;;1.42;0.60;;;13.90;99.90;;;;;;5045701;28;20134;-63
2021/12/30 00:21:09;;;;;;;1.13;0.65;;;13.90;99.90;;;;;;5027926;28;20081;-63
2021/12/30 00:23:39;;;;;;;1.08;0.98;;;13.90;99.90;;;;;;5045641;28;20526;-62
2021/12/30 00:26:05;;;;;;;2.00;0.70;;;13.90;99.90;;;;;;5043882;28;20107;-62
2021/12/30 00:28:33;;;;;;;0.82;0.60;;;14.00;99.90;;;;;;5045154;28;20040;-62
2021/12/30 00:30:59;;;;;;;2.15;0.60;;;14.00;99.90;;;;;;5046323;28;20084;-61
2021/12/30 00:33:27;;;;;;;0.60;0.50;;;14.00;99.90;;;;;;5046742;28;20060;-62
2021/12/30 00:35:54;;;;;;;2.20;0.82;;;14.00;99.90;;;;;;5046681;28;20102;-61
2021/12/30 00:38:21;;;;;;;2.00;0.77;;;14.00;99.90;;;;;;5047210;28;20083;-61
2021/12/30 00:40:48;;;;;;;1.58;0.60;;;14.00;99.90;;;;;;5048169;28;20388;-62
2021/12/30 00:43:14;;;;;;;1.15;0.90;;;14.00;99.90;;;;;;5046715;28;20475;-61
2021/12/30 00:45:41;;;;;;;1.23;0.60;;;14.00;99.90;;;;;;5046782;28;20496;-62
2021/12/30 00:48:08;;;;;;;0.40;0.40;;;14.00;99.90;;;;;;5047374;28;20565;-61
2021/12/30 00:50:39;;;;;;;1.38;0.85;;;14.00;99.90;;;;;;5046961;28;20118;-62
2021/12/30 00:53:06;;;;;;;1.55;0.57;;;14.00;99.90;;;;;;5030973;28;20044;-61
2021/12/30 00:55:33;;;;;;;0.52;0.40;;;14.00;99.90;;;;;;5047676;28;20049;-63
2021/12/30 00:58:00;;;;;;;2.00;0.60;;;14.00;99.90;;;;;;5046917;28;20044;-62
2021/12/30 01:00:27;;;;;;;0.95;0.85;;;14.00;99.90;;;;;;5046824;28;20077;-62
2021/12/30 01:02:54;;;;;;;2.15;0.98;;;14.10;99.90;;;;;;5045361;28;20143;-62
2021/12/30 01:05:21;;;;;;;1.42;0.80;;;14.10;99.90;;;;;;5047589;28;20045;-62
2021/12/30 01:07:48;;;;;;;0.90;0.65;;;14.10;99.90;;;;;;5047872;28;20049;-62
2021/12/30 01:10:17;;;;;;;1.48;0.98;;;14.10;99.90;;;;;;5047740;28;20049;-61
2021/12/30 01:12:44;;;;;;;3.13;0.77;;;14.10;99.90;;;;;;5023037;28;20103;-62
2021/12/30 01:15:12;;;;;;;3.28;0.80;;;14.10;99.90;;;;;;5046044;28;20068;-61
2021/12/30 01:20:08;;;;;;;2.05;1.02;;;14.10;99.90;;;;;;5047375;28;20409;-61
2021/12/30 01:22:35;;;;;;;2.63;1.05;;;14.10;99.90;;;;;;5045907;28;20049;-61
2021/12/30 01:25:02;;;;;;;2.38;1.00;;;14.10;99.90;;;;;;5047551;28;20126;-61
2021/12/30 01:27:29;;;;;;;2.78;1.20;;;14.10;99.90;;;;;;5047227;28;20045;-62
2021/12/30 01:29:56;;;;;;;1.85;1.17;;;14.10;99.90;;;;;;5045650;28;20071;-62
2021/12/30 01:32:23;;;;;;;1.88;1.17;;;14.10;99.90;;;;;;5046730;28;20546;-61
2021/12/30 01:34:49;;;;;;;3.28;1.13;;;14.20;99.90;;;;;;5047172;28;20194;-62
2021/12/30 01:37:20;;;;;;;1.70;1.30;;;14.20;99.90;;;;;;5047641;28;20492;-62
2021/12/30 01:39:47;;;;;;;2.25;1.55;;;14.10;99.90;;;;;;5047645;28;20110;-62
2021/12/30 01:42:14;;;;;;;3.83;1.58;;;14.20;99.90;;;;;;5047015;28;20057;-60
2021/12/30 01:44:41;;;;;;;1.90;1.30;;;14.20;99.90;;;;;;5047451;28;20106;-61
2021/12/30 01:47:08;;;;;;;5.72;2.13;;;14.20;99.90;;;;;;5029757;28;20056;-61
2021/12/30 01:49:34;;;;;;;3.50;1.77;;;14.20;99.90;;;;;;5045597;28;20072;-62
2021/12/30 01:52:01;;;;;;;5.15;2.25;;;14.20;99.90;;;;;;5047245;28;20110;-62
2021/12/30 01:54:28;;;;;;;8.02;2.08;;;14.20;99.90;;;;;;5047422;28;20118;-61
2021/12/30 01:56:58;;;;;;;3.25;1.90;;;14.20;99.90;;;;;;5047457;28;20080;-62
2021/12/30 01:59:25;;;;;;;5.78;2.08;;;14.20;99.90;;;;;;5047219;28;20079;-61
2021/12/30 02:01:56;;;;;;;1.88;1.23;;;14.20;99.90;;;;;;5046761;28;20053;-62
2021/12/30 02:04:29;;;;;;;3.47;1.98;;;14.20;99.90;;;;;;5046984;28;20048;-61
2021/12/30 02:06:56;;;;;;;8.30;1.63;;;14.20;99.90;;;;;;5047147;28;20044;-62
2021/12/30 02:09:23;;;;;;;4.18;2.40;;;14.20;99.90;;;;;;5045726;28;20091;-61
2021/12/30 02:11:51;;;;;;;3.83;1.85;;;14.20;99.90;;;;;;5046922;28;20053;-61
2021/12/30 02:14:17;;;;;;;3.60;1.80;;;14.20;99.90;;;;;;5047106;28;20048;-63
2021/12/30 02:16:44;;;;;;;5.28;1.70;;;14.20;99.90;;;;;;5046315;28;20045;-62
2021/12/30 02:19:11;;;;;;;3.97;1.63;;;14.30;99.90;;;;;;5046491;28;20045;-62
2021/12/30 02:21:38;;;;;;;5.72;2.30;;;14.20;99.90;;;;;;5045970;28;20528;-62
2021/12/30 02:24:05;;;;;;;7.70;2.20;;;14.30;99.90;;;;;;5028399;28;20046;-62
2021/12/30 02:26:32;;;;;;;4.10;1.60;;;14.20;99.90;;;;;;5043615;28;20044;-63
2021/12/30 02:28:59;;;;;;;5.00;1.70;;;14.20;99.90;;;;;;5050400;28;20088;-62
2021/12/30 02:31:27;;;;;;;6.93;1.90;;;14.20;99.90;;;;;;4699471;28;10000305;-62
2021/12/30 02:33:55;;;;;;;7.47;2.10;;;14.30;99.90;;;;;;5049725;28;20056;-61
2021/12/30 02:36:27;;;;;;;4.85;2.10;;;14.20;99.90;;;;;;5050150;28;20080;-62
2021/12/30 02:38:54;;;;;;;6.40;1.85;;;14.20;99.90;;;;;;5050923;28;20044;-62
2021/12/30 02:41:20;;;;;;;5.63;1.88;;;14.20;99.90;;;;;;5050261;28;20045;-61
2021/12/30 02:43:48;;;;;;;3.55;2.38;;;14.20;99.90;;;;;;5050592;28;20052;-62
2021/12/30 02:46:22;;;;;;;4.60;1.85;;;14.20;99.90;;;;;;5050659;28;20069;-62
2021/12/30 02:48:52;;;;;;;3.28;2.17;;;14.20;99.90;;;;;;5050473;28;20049;-62
2021/12/30 02:51:21;;;;;;;3.30;1.60;;;14.20;99.90;;;;;;5050134;28;20178;-62
2021/12/30 02:53:48;;;;;;;4.88;1.63;;;14.10;99.90;;;;;;5048974;28;20088;-62
2021/12/30 02:56:14;;;;;;;5.53;1.98;;;14.20;99.90;;;;;;5050144;28;20053;-62
2021/12/30 02:58:41;;;;;;;3.60;1.33;;;14.10;99.90;;;;;;5050608;28;20415;-61
2021/12/30 03:01:15;;;;;;;2.03;1.38;;;14.10;99.90;;;;;;5050544;28;20053;-60
2021/12/30 03:03:42;;;;;;;;;;;14.10;99.90;;;;;;5047366;28;20110;-60
2021/12/30 03:06:10;;;;;;;2.10;1.17;;;14.10;99.90;;;;;;5050497;28;19921;-61
2021/12/30 03:08:37;;;;;;;6.00;3.33;;;14.10;99.90;;;;;;5050098;28;20045;-61
2021/12/30 03:11:04;;;;;;;3.22;1.35;;;14.10;99.90;;;;;;5049438;28;20088;-61
2021/12/30 03:13:32;;;;;;;4.82;1.65;;;14.00;99.90;;;;;;5049918;28;20461;-61
2021/12/30 03:16:07;;;;;;;1.65;1.00;;;14.00;99.90;;;;;;5050062;28;20048;-61
2021/12/30 03:18:35;;;;;;;2.25;1.00;;;14.00;99.90;;;;;;5049075;28;20048;-61
2021/12/30 03:21:03;;;;;;;2.55;1.17;;;14.00;99.90;;;;;;5048445;28;20045;-61
2021/12/30 03:23:30;;;;;;;2.08;1.38;;;14.00;99.90;;;;;;5049323;28;20072;-61
2021/12/30 03:25:57;;;;;;;2.47;1.10;;;14.00;99.90;;;;;;5048942;28;20083;-61
2021/12/30 03:28:24;;;;;;;3.28;1.10;;;14.00;99.90;;;;;;5049623;28;20323;-61
2021/12/30 03:30:58;;;;;;;2.70;1.00;;;14.00;99.90;;;;;;5049892;28;20088;-61
2021/12/30 03:33:29;;;;;;;4.72;1.02;;;14.00;99.90;;;;;;5048227;28;20045;-61
2021/12/30 03:35:59;;;;;;;0.95;0.85;;;14.00;99.90;;;;;;5049037;28;20137;-61
2021/12/30 03:38:39;;;;;;;3.65;1.08;;;14.00;99.90;;;;;;5049435;28;20041;-61
2021/12/30 03:41:07;;;;;;;6.30;2.13;;;14.00;99.90;;;;;;5049587;28;20566;-61
2021/12/30 03:43:34;;;;;;;4.40;1.60;;;14.00;99.90;;;;;;5047931;28;20049;-61
2021/12/30 03:46:00;;;;;;;2.92;1.08;;;14.00;99.90;;;;;;5049743;28;20053;-61
2021/12/30 03:48:33;;;;;;;2.42;1.00;;;14.00;99.90;;;;;;5047589;28;20555;-60
2021/12/30 03:51:05;;;;;;;3.97;1.50;;;14.10;99.90;;;;;;5049575;28;20076;-60
2021/12/30 03:53:37;;;;;;;2.65;1.30;;;14.10;99.90;;;;;;5048969;28;20045;-61
2021/12/30 03:56:05;;;;;;;4.03;1.40;;;14.10;99.90;;;;;;5049564;28;20106;-61
2021/12/30 03:58:32;;;;;;;7.05;2.80;;;14.10;99.90;;;;;;5049175;28;20102;-61
2021/12/30 04:00:59;;;;;;;3.58;1.13;;;14.10;99.90;;;;;;5037167;28;20053;-61
2021/12/30 04:03:26;;;;;;;3.30;1.05;;;14.10;99.90;;;;;;5034378;28;20045;-61
2021/12/30 04:05:53;;;;;;;5.10;1.42;;;14.10;99.90;;;;;;5045607;28;20136;-61
2021/12/30 04:08:20;;;;;;;3.53;1.55;;;14.10;99.90;;;;;;5048786;28;20073;-61
2021/12/30 04:10:47;;;;;;;3.88;1.30;;;14.10;99.90;;;;;;5050315;28;20049;-60
2021/12/30 04:13:13;;;;;;;5.80;1.45;;;14.10;99.90;;;;;;5049824;28;20076;-61
2021/12/30 04:15:40;;;;;;;3.47;1.48;;;14.10;99.90;;;;;;5048451;28;20045;-61
2021/12/30 04:18:07;;;;;;;5.05;1.20;;;14.10;99.90;;;;;;5048905;28;20083;-61
2021/12/30 04:20:34;;;;;;;3.83;1.45;;;14.10;99.90;;;;;;5048603;28;20049;-61
2021/12/30 04:23:01;;;;;;;4.95;1.10;;;14.10;99.90;;;;;;5047701;28;20075;-60
2021/12/30 04:25:27;;;;;;;6.35;1.58;;;14.10;99.90;;;;;;5048707;28;20076;-61
2021/12/30 04:27:54;;;;;;;4.40;1.45;;;14.10;99.90;;;;;;5048800;28;20135;-61
2021/12/30 04:30:21;;;;;;;4.70;1.80;;;14.10;99.90;;;;;;5048645;28;20045;-61
2021/12/30 04:32:48;;;;;;;4.80;1.83;;;14.10;99.90;;;;;;5048717;28;20087;-61
2021/12/30 04:35:14;;;;;;;10.30;3.10;;;14.10;99.90;;;;;;5048520;28;20071;-60
2021/12/30 04:37:42;;;;;;;10.57;3.00;;;14.10;99.90;;;;;;5048563;28;20107;-60
2021/12/30 04:40:09;;;;;;;7.55;1.92;;;14.10;99.90;;;;;;5048478;28;20044;-60
2021/12/30 04:42:36;;;;;;;5.68;1.70;;;14.00;99.90;;;;;;5048756;28;20099;-61
2021/12/30 04:45:04;;;;;;;10.27;1.60;;;14.10;99.90;;;;;;5048527;28;20107;-61
2021/12/30 04:47:31;;;;;;;4.95;2.15;;;14.00;99.90;;;;;;5047268;28;20266;-60
2021/12/30 04:49:58;;;;;;;7.07;1.85;;;14.10;99.90;;;;;;5048243;28;20580;-60
2021/12/30 04:52:25;;;;;;;12.20;3.17;;;14.10;99.90;;;;;;5048493;28;20084;-60
2021/12/30 04:54:52;;;;;;;13.18;2.35;;;14.10;99.90;;;;;;5048110;28;20077;-61
2021/12/30 04:57:19;;;;;;;9.20;2.58;;;14.10;99.90;;;;;;5048086;28;20569;-60
2021/12/30 04:59:46;;;;;;;12.57;2.22;;;14.10;99.90;;;;;;5048199;28;20075;-61
2021/12/30 05:02:13;;;;;;;9.07;2.40;;;14.00;99.90;;;;;;5048076;28;20084;-61
2021/12/30 05:04:40;;;;;;;11.85;2.95;;;14.10;99.90;;;;;;5047695;28;20053;-61
2021/12/30 05:07:07;;;;;;;9.43;2.88;;;14.10;99.90;;;;;;5046347;28;20080;-61
2021/12/30 05:09:34;;;;;;;7.30;2.60;;;14.00;99.90;;;;;;5047472;28;20076;-61
2021/12/30 05:12:00;;;;;;;11.82;2.53;;;14.00;99.90;;;;;;5047349;28;20080;-60
2021/12/30 05:14:27;;;;;;;10.38;2.72;;;14.00;99.90;;;;;;5047563;28;20408;-60
2021/12/30 05:16:55;;;;;;;9.55;2.08;;;14.10;99.90;;;;;;5047477;28;20796;-60
2021/12/30 05:19:22;;;;;;;11.95;3.35;;;14.10;99.90;;;;;;5047623;28;20083;-60
2021/12/30 05:21:49;;;;;;;17.05;2.97;;;14.00;99.90;;;;;;5047534;28;20413;-61
2021/12/30 05:24:17;;;;;;;13.32;4.47;;;14.00;99.90;;;;;;5047714;28;20048;-63
2021/12/30 05:26:43;;;;;;;23.85;4.40;;;14.00;99.90;;;;;;5047444;28;20540;-61
2021/12/30 05:29:10;;;;;;;20.23;5.22;;;14.00;99.90;;;;;;5046478;28;20053;-61
2021/12/30 05:31:37;;;;;;;15.88;4.60;;;14.00;99.90;;;;;;5047408;28;20083;-61
2021/12/30 05:34:04;;;;;;;21.05;5.18;;;13.90;99.90;;;;;;5046996;28;20045;-62
2021/12/30 05:36:31;;;;;;;24.98;4.63;;;13.90;99.90;;;;;;5047477;28;20073;-61
2021/12/30 05:38:57;;;;;;;27.65;8.27;;;13.90;99.90;;;;;;5047160;28;20095;-61
2021/12/30 05:41:26;;;;;;;22.85;5.28;;;13.90;99.90;;;;;;5047499;28;20045;-61
2021/12/30 05:43:53;;;;;;;25.85;5.90;;;13.90;99.90;;;;;;5047448;28;20094;-61
2021/12/30 05:46:20;;;;;;;24.98;6.30;;;13.90;99.90;;;;;;5047552;28;20079;-61
2021/12/30 05:48:47;;;;;;;28.08;6.32;;;13.80;99.90;;;;;;5048305;28;20060;-67
2021/12/30 05:51:13;;;;;;;36.28;9.95;;;13.80;99.90;;;;;;5048511;28;20045;-61
2021/12/30 05:53:40;;;;;;;33.20;7.07;;;13.80;99.90;;;;;;5045854;28;20053;-61
2021/12/30 05:56:07;;;;;;;33.33;7.75;;;13.80;99.90;;;;;;5047639;28;20049;-61
2021/12/30 05:58:34;;;;;;;29.25;6.35;;;13.80;99.90;;;;;;5047952;28;20110;-61
2021/12/30 06:01:00;;;;;;;33.17;7.13;;;13.80;99.90;;;;;;5053568;28;20048;-61
2021/12/30 06:03:28;;;;;;;29.30;6.32;;;13.80;99.90;;;;;;5053445;28;20048;-61
2021/12/30 06:05:54;;;;;;;25.40;6.10;;;13.80;99.90;;;;;;5053433;28;20106;-61
2021/12/30 06:08:21;;;;;;;22.20;7.15;;;13.80;99.90;;;;;;5053260;28;20045;-61
2021/12/30 06:10:48;;;;;;;25.88;5.45;;;13.80;99.90;;;;;;5053819;28;20437;-61
2021/12/30 06:13:15;;;;;;;29.33;5.95;;;13.80;99.90;;;;;;5053194;28;20075;-61
2021/12/30 06:15:41;;;;;;;32.22;7.70;;;13.80;99.90;;;;;;5053766;28;20045;-61
2021/12/30 06:18:08;;;;;;;27.00;5.68;;;13.80;99.90;;;;;;5053307;28;20049;-61
2021/12/30 06:20:35;;;;;;;31.38;6.38;;;13.80;99.90;;;;;;5052461;28;20076;-61
2021/12/30 06:23:02;;;;;;;25.90;5.40;;;13.80;99.90;;;;;;5053387;28;20087;-60
2021/12/30 06:25:28;;;;;;;21.08;5.68;;;13.80;99.90;;;;;;5053432;28;20072;-60
2021/12/30 06:27:56;;;;;;;19.48;6.18;;;13.80;99.90;;;;;;5053583;28;20053;-60
2021/12/30 06:30:23;;;;;;;24.40;5.28;;;13.80;99.90;;;;;;5052296;28;20202;-60
2021/12/30 06:32:50;;;;;;;20.55;5.35;;;13.90;99.90;;;;;;5053465;28;20102;-61
2021/12/30 06:35:16;;;;;;;31.63;6.40;;;13.80;99.90;;;;;;5053056;28;20114;-60
2021/12/30 06:37:43;;;;;;;18.77;4.93;;;13.90;99.90;;;;;;5053195;28;20059;-61
2021/12/30 06:40:12;;;;;;;25.80;7.22;;;13.80;99.90;;;;;;5053062;28;20080;-61
2021/12/30 06:42:38;;;;;;;21.02;5.10;;;13.90;99.90;;;;;;5053721;28;20113;-60
2021/12/30 06:45:05;;;;;;;24.20;5.63;;;13.90;99.90;;;;;;5053293;28;20495;-61
2021/12/30 06:47:32;;;;;;;24.40;4.95;;;13.80;99.90;;;;;;5053110;28;20057;-61
2021/12/30 06:50:00;;;;;;;25.52;4.60;;;13.80;99.90;;;;;;5053300;28;20065;-61
2021/12/30 06:52:27;;;;;;;22.27;5.50;;;13.80;99.90;;;;;;5053377;28;20073;-61
2021/12/30 06:54:54;;;;;;;13.50;4.43;;;13.90;99.90;;;;;;5053327;28;20461;-61
2021/12/30 06:57:21;;;;;;;23.55;5.25;;;13.80;99.90;;;;;;5053122;28;20049;-62
2021/12/30 06:59:48;;;;;;;20.17;4.80;;;13.90;99.90;;;;;;5053097;28;20997;-61
2021/12/30 07:02:14;;;;;;;16.00;4.25;;;13.80;99.90;;;;;;5053241;28;20049;-61
2021/12/30 07:04:42;;;;;;;22.60;6.00;;;13.80;99.90;;;;;;5053002;28;20049;-61
2021/12/30 07:07:09;;;;;;;19.70;4.88;;;13.90;99.90;;;;;;5053293;28;20049;-61
2021/12/30 07:09:36;;;;;;;18.00;3.80;;;13.90;99.90;;;;;;5052869;28;20338;-61
2021/12/30 07:12:03;;;;;;;22.92;5.25;;;13.90;99.90;;;;;;5031566;28;20092;-61
2021/12/30 07:14:30;;;;;;;18.10;4.43;;;13.90;99.90;;;;;;5049782;28;20542;-61
2021/12/30 07:16:57;;;;;;;19.27;3.97;;;13.90;99.90;;;;;;5048445;28;20086;-61
2021/12/30 07:19:23;;;;;;;21.42;4.50;;;13.90;99.90;;;;;;5049994;28;20067;-61
2021/12/30 07:21:52;;;;;;;18.75;4.07;;;13.90;99.90;;;;;;5049760;28;20048;-61
2021/12/30 07:24:22;;;;;;;24.40;4.88;;;13.90;99.90;;;;;;5050572;28;20496;-61
2021/12/30 07:26:49;;;;;;;15.95;3.88;;;13.90;99.90;;;;;;5050899;28;20053;-61
2021/12/30 07:29:16;;;;;;;24.02;4.15;;;13.90;99.90;;;;;;5049869;28;20178;-61
2021/12/30 07:31:43;;;;;;;20.33;3.72;;;13.90;99.90;;;;;;5049557;28;20080;-62
2021/12/30 07:34:10;;;;;;;21.13;3.72;;;13.90;99.90;;;;;;5048235;28;20524;-61
2021/12/30 07:36:37;;;;;;;21.50;3.75;;;13.90;99.90;;;;;;5049534;28;20106;-61
2021/12/30 07:39:04;;;;;;;17.55;4.65;;;13.90;99.90;;;;;;5049340;28;20052;-61
2021/12/30 07:41:32;;;;;;;19.92;4.38;;;13.80;99.90;;;;;;5049153;28;20114;-60
2021/12/30 07:43:58;;;;;;;16.77;4.40;;;13.90;99.90;;;;;;5049492;28;20626;-61
2021/12/30 07:46:25;;;;;;;23.33;4.10;;;13.90;99.90;;;;;;5048122;28;20383;-60
2021/12/30 07:48:52;;;;;;;25.95;4.30;;;13.90;99.90;;;;;;5049216;28;20064;-60
2021/12/30 07:51:19;;;;;;;24.73;5.68;;;14.00;99.90;;;;;;5049148;28;20045;-61
2021/12/30 07:53:46;;;;;;;22.92;4.13;;;14.00;99.90;;;;;;5038481;28;20045;-60
2021/12/30 07:56:13;;;;;;;24.30;4.40;;;14.00;99.90;;;;;;5048123;28;20638;-61
2021/12/30 07:58:40;;;;;;;24.95;6.35;;;14.00;99.90;;;;;;5048726;28;20092;-61
2021/12/30 08:01:07;;;;;;;20.83;4.28;;;14.00;99.90;;;;;;5048661;28;20081;-60
2021/12/30 08:03:34;;;;;;;18.83;3.83;;;14.00;99.90;;;;;;5048419;28;20098;-62
2021/12/30 08:06:01;;;;;;;21.65;3.63;;;14.00;99.90;;;;;;5049401;28;20087;-62
2021/12/30 08:08:28;;;;;;;20.95;4.63;;;14.00;99.90;;;;;;5048694;28;20127;-61
2021/12/30 08:10:54;;;;;;;21.15;4.20;;;14.10;99.90;;;;;;5047928;28;20419;-61
2021/12/30 08:13:23;;;;;;;24.15;4.13;;;14.10;99.90;;;;;;5049044;28;20480;-61
2021/12/30 08:15:50;;;;;;;18.88;3.58;;;14.00;99.90;;;;;;5029030;28;20484;-61
2021/12/30 08:18:17;;;;;;;17.38;4.47;;;14.00;99.90;;;;;;5041962;28;20561;-61
2021/12/30 08:20:44;;;;;;;13.50;3.88;;;14.10;99.90;;;;;;5048655;28;20076;-61
2021/12/30 08:23:11;;;;;;;17.70;3.38;;;14.10;99.90;;;;;;5048431;28;20080;-61
2021/12/30 08:25:38;;;;;;;15.88;3.95;;;14.10;99.90;;;;;;5048425;28;20045;-62
2021/12/30 08:28:04;;;;;;;18.15;3.75;;;14.10;99.90;;;;;;5048515;28;20087;-60
2021/12/30 08:30:31;;;;;;;24.80;4.18;;;14.10;99.90;;;;;;5048521;28;20496;-61
2021/12/30 08:32:58;;;;;;;17.90;3.67;;;14.10;99.90;;;;;;5048205;28;20077;-62
2021/12/30 08:35:25;;;;;;;16.80;4.38;;;14.10;99.90;;;;;;5048573;28;20084;-61
2021/12/30 08:37:54;;;;;;;20.83;5.00;;;14.10;99.90;;;;;;5048336;28;20095;-62
2021/12/30 08:40:21;;;;;;;19.23;4.32;;;14.10;99.90;;;;;;5048164;28;20189;-62
2021/12/30 08:42:47;;;;;;;15.57;4.25;;;14.10;99.90;;;;;;5047904;28;20511;-62
2021/12/30 08:45:14;;;;;;;21.25;4.25;;;14.00;99.90;;;;;;5048471;28;20051;-62
2021/12/30 08:47:41;;;;;;;13.73;3.42;;;14.10;99.90;;;;;;5048096;28;20048;-62
2021/12/30 08:50:09;;;;;;;18.98;4.30;;;14.00;99.90;;;;;;5047548;28;20083;-61
2021/12/30 08:52:36;;;;;;;18.60;3.95;;;14.00;99.90;;;;;;5047925;28;20122;-60
2021/12/30 08:55:04;;;;;;;21.83;3.20;;;14.00;99.90;;;;;;5047967;28;20060;-60
2021/12/30 08:57:31;;;;;;;14.40;2.95;;;14.00;99.90;;;;;;5047683;28;20528;-60
2021/12/30 08:59:58;;;;;;;15.00;3.10;;;14.00;99.90;;;;;;5047090;28;20045;-60
2021/12/30 09:02:25;;;;;;;21.88;3.72;;;13.90;99.90;;;;;;5045286;28;20044;-61
2021/12/30 09:04:52;;;;;;;16.52;2.75;;;13.90;99.90;;;;;;5048949;28;20084;-61
2021/12/30 09:07:19;;;;;;;19.23;3.92;;;13.90;99.90;;;;;;5048830;28;20504;-61
2021/12/30 09:09:46;;;;;;;16.40;3.53;;;13.90;99.90;;;;;;5047543;28;20053;-61
2021/12/30 09:12:17;;;;;;;9.65;2.50;;;13.90;99.90;;;;;;5047433;28;20045;-61
2021/12/30 09:14:44;;;;;;;16.58;4.00;;;13.90;99.90;;;;;;5046401;28;20836;-61
2021/12/30 09:17:13;;;;;;;13.10;3.60;;;13.90;99.90;;;;;;5045348;28;20381;-61
2021/12/30 09:19:40;;;;;;;11.30;3.40;;;14.00;99.90;;;;;;5045777;28;20490;-61
2021/12/30 09:22:06;;;;;;;12.90;3.13;;;14.00;99.90;;;;;;5047658;28;20491;-61
2021/12/30 09:24:33;;;;;;;13.57;3.28;;;14.00;99.90;;;;;;5047245;28;20080;-61
2021/12/30 09:27:00;;;;;;;10.82;3.33;;;14.00;99.90;;;;;;5045665;28;20480;-60
2021/12/30 09:29:27;;;;;;;11.07;3.38;;;14.10;99.90;;;;;;5047343;28;20084;-60
2021/12/30 09:31:54;;;;;;;8.32;2.47;;;14.10;99.90;;;;;;5045735;28;20110;-60
2021/12/30 09:34:21;;;;;;;14.88;3.00;;;14.00;99.90;;;;;;5045873;28;20488;-60
2021/12/30 09:36:48;;;;;;;12.95;3.53;;;14.10;99.90;;;;;;5046857;28;20080;-60
2021/12/30 09:39:15;;;;;;;13.00;2.90;;;14.10;99.90;;;;;;5046992;28;20084;-61
2021/12/30 09:41:44;;;;;;;12.35;3.95;;;14.10;99.90;;;;;;5047227;28;20106;-60
2021/12/30 09:44:13;;;;;;;16.08;3.08;;;14.10;99.90;;;;;;5047501;28;20053;-60
2021/12/30 09:46:40;;;;;;;12.00;3.05;;;14.10;99.90;;;;;;5045409;28;20114;-60
2021/12/30 09:49:08;;;;;;;8.65;3.15;;;14.10;99.90;;;;;;5044928;28;20106;-60
2021/12/30 09:51:35;;;;;;;13.20;3.40;;;14.20;99.90;;;;;;5045242;28;20087;-60
2021/12/30 09:54:02;;;;;;;7.85;3.13;;;14.20;99.90;;;;;;5045954;28;20087;-60
2021/12/30 09:56:29;;;;;;;12.80;3.55;;;14.20;99.90;;;;;;5044719;28;20072;-59
2021/12/30 09:58:56;;;;;;;19.25;4.95;;;14.30;99.90;;;;;;5045537;28;20053;-61
2021/12/30 10:01:23;;;;;;;10.75;3.38;;;14.30;99.90;;;;;;5045277;28;20450;-60
2021/12/30 10:03:57;;;;;;;12.65;3.53;;;14.20;99.90;;;;;;5046664;28;20059;-61
2021/12/30 10:06:25;;;;;;;10.38;3.10;;;14.30;99.90;;;;;;5046639;28;20522;-59
2021/12/30 10:08:57;;;;;;;14.13;3.67;;;14.30;99.90;;;;;;5045700;28;20049;-60
2021/12/30 10:11:24;;;;;;;15.98;4.50;;;14.30;99.90;;;;;;5046914;28;20053;-60
2021/12/30 10:13:59;;;;;;;11.15;3.05;;;14.30;99.90;;;;;;5047098;28;20657;-60
2021/12/30 10:16:26;;;;;;;8.30;3.00;;;14.30;99.90;;;;;;5046766;28;20041;-60
2021/12/30 10:18:58;;;;;;;10.45;3.67;;;14.30;99.90;;;;;;5047058;28;20063;-60
2021/12/30 10:21:31;;;;;;;14.63;3.42;;;14.20;99.90;;;;;;5045410;28;20041;-61
2021/12/30 10:24:00;;;;;;;9.98;2.70;;;14.20;99.90;;;;;;5046804;28;20078;-60
2021/12/30 10:26:27;;;;;;;8.73;3.20;;;14.20;99.90;;;;;;5046633;28;20045;-60
2021/12/30 10:28:56;;;;;;;15.93;4.18;;;14.20;99.90;;;;;;5047109;28;20542;-60
2021/12/30 10:31:25;;;;;;;11.23;2.97;;;14.20;99.90;;;;;;5029163;28;20051;-60
2021/12/30 10:33:56;;;;;;;12.77;3.08;;;14.30;99.90;;;;;;5046959;28;20183;-59
2021/12/30 10:36:25;;;;;;;13.50;3.25;;;14.30;99.90;;;;;;5046629;28;20057;-59
2021/12/30 10:38:56;;;;;;;10.38;3.63;;;14.30;99.90;;;;;;5043176;28;20094;-59
2021/12/30 10:41:24;;;;;;;11.60;2.13;;;14.30;99.90;;;;;;5045468;28;20072;-60
2021/12/30 10:43:52;;;;;;;7.78;2.30;;;14.30;99.90;;;;;;5045638;28;20049;-60
2021/12/30 10:46:24;;;;;;;12.05;3.50;;;14.30;99.90;;;;;;5049203;28;20088;-60
2021/12/30 10:49:10;;;;;;;9.65;2.85;;;14.30;99.90;;;;;;5050493;28;20045;-59
2021/12/30 10:51:48;;;;;;;13.43;2.95;;;14.30;99.90;;;;;;5046973;28;20053;-60
2021/12/30 10:54:18;;;;;;;10.60;2.42;;;14.30;99.90;;;;;;5049254;28;20056;-61
2021/12/30 10:56:53;;;;;;;8.90;2.15;;;14.40;99.90;;;;;;5048155;28;20060;-59
2021/12/30 10:59:27;;;;;;;12.00;3.22;;;14.40;99.90;;;;;;5049629;28;20048;-60
2021/12/30 11:01:56;;;;;;;11.35;2.65;;;14.40;99.90;;;;;;5047134;28;20053;-61
2021/12/30 11:04:31;;;;;;;11.40;2.55;;;14.40;99.90;;;;;;5049055;28;20052;-61
2021/12/30 11:06:58;;;;;;;7.90;2.25;;;14.50;99.90;;;;;;5050839;28;20041;-59
2021/12/30 11:09:25;;;;;;;7.90;2.53;;;14.50;99.90;;;;;;5050248;28;20049;-60
2021/12/30 11:11:58;;;;;;;9.98;2.42;;;14.50;99.90;;;;;;5049307;28;20102;-61
2021/12/30 11:14:27;;;;;;;6.05;2.20;;;14.50;99.90;;;;;;5048847;28;20329;-60
2021/12/30 11:16:56;;;;;;;9.02;2.47;;;14.60;99.90;;;;;;5050809;28;20084;-61
2021/12/30 11:19:23;;;;;;;11.52;2.22;;;14.70;99.90;;;;;;5048572;28;20049;-60
2021/12/30 11:21:51;;;;;;;8.15;2.35;;;14.70;99.90;;;;;;5048640;28;20045;-59
2021/12/30 11:24:18;;;;;;;9.80;2.55;;;14.80;99.90;;;;;;5049378;28;20099;-59
2021/12/30 11:26:45;;;;;;;9.77;2.10;;;14.90;99.90;;;;;;5032501;28;20045;-60
2021/12/30 11:29:12;;;;;;;13.43;2.45;;;14.90;99.90;;;;;;5048609;28;20049;-61
2021/12/30 11:31:39;;;;;;;9.65;2.47;;;14.90;99.90;;;;;;5049585;28;20053;-60
2021/12/30 11:34:06;;;;;;;10.43;2.38;;;14.90;99.90;;;;;;5049478;28;20041;-60
2021/12/30 11:36:33;;;;;;;8.48;2.13;;;14.90;99.90;;;;;;5050079;28;20045;-64
2021/12/30 11:39:13;;;;;;;10.20;2.70;;;14.90;99.90;;;;;;4697189;28;10000280;-60
2021/12/30 11:41:43;;;;;;;10.52;2.25;;;14.90;99.90;;;;;;5045764;28;20053;-61
2021/12/30 11:44:09;;;;;;;9.27;3.05;;;14.90;99.90;;;;;;5045220;28;20559;-61
2021/12/30 11:46:44;;;;;;;10.07;2.08;;;14.80;99.90;;;;;;5025415;28;20108;-61
2021/12/30 11:49:13;;;;;;;10.20;3.35;;;14.80;99.90;;;;;;5044787;28;20064;-60
2021/12/30 11:51:48;;;;;;;6.65;2.28;;;14.80;99.90;;;;;;5046635;28;20053;-61
2021/12/30 11:54:38;;;;;;;14.88;3.03;;;14.80;99.90;;;;;;5046592;28;20467;-60
2021/12/30 11:57:28;;;;;;;8.38;2.25;;;14.80;99.90;;;;;;5036977;28;20532;-61
2021/12/30 11:59:56;;;;;;;8.60;1.85;;;14.70;99.90;;;;;;5046473;28;20053;-61
2021/12/30 12:02:33;;;;;;;10.05;3.42;;;14.70;99.90;;;;;;5045957;28;20124;-61
2021/12/30 12:05:39;;;;;;;9.57;1.88;;;14.70;99.90;;;;;;5045636;28;20049;-61
2021/12/30 12:08:08;;;;;;;6.97;2.58;;;14.60;99.90;;;;;;5046291;28;20081;-60
2021/12/30 12:10:35;;;;;;;9.02;2.55;;;14.70;99.90;;;;;;5045413;28;20095;-60
2021/12/30 12:13:31;;;;;;;12.48;3.10;;;14.60;99.90;;;;;;5044042;28;20653;-60
2021/12/30 12:15:58;;;;;;;14.35;2.78;;;14.60;99.90;;;;;;5042649;28;20128;-61
2021/12/30 12:18:25;;;;;;;13.50;3.38;;;14.60;99.90;;;;;;5028447;28;20102;-61
2021/12/30 12:20:53;;;;;;;13.80;2.90;;;14.60;99.90;;;;;;5046966;28;20060;-61
2021/12/30 12:23:49;;;;;;;11.05;2.85;;;14.60;99.90;;;;;;5046341;28;20102;-60
2021/12/30 12:26:21;;;;;;;10.73;2.78;;;14.60;99.90;;;;;;5034625;28;20500;-62
2021/12/30 12:28:48;;;;;;;10.63;3.00;;;14.60;99.90;;;;;;5045969;28;20071;-61
2021/12/30 12:31:15;;;;;;;10.00;2.72;;;14.60;99.90;;;;;;5043903;28;20126;-61
2021/12/30 12:33:42;;;;;;;13.40;3.33;;;14.70;99.90;;;;;;5041469;28;20053;-61
2021/12/30 12:36:14;;;;;;;15.02;3.33;;;14.80;99.90;;;;;;5045890;28;20045;-60
2021/12/30 12:38:48;;;;;;;11.77;3.05;;;14.80;99.90;;;;;;5045446;28;20102;-61
2021/12/30 12:41:21;;;;;;;12.10;3.03;;;14.90;99.90;;;;;;5045690;28;20500;-61
2021/12/30 12:44:07;;;;;;;12.20;3.35;;;14.90;99.90;;;;;;5045272;28;20063;-60
2021/12/30 12:46:49;;;;;;;14.15;2.60;;;14.90;99.90;;;;;;5043902;28;20041;-60
2021/12/30 12:49:36;;;;;;;19.98;3.22;;;14.90;99.90;;;;;;5044825;28;20057;-62